Time;durP1;ratioP1;P1;durP2;ratioP2;P2;SDS_P1;SDS_P2;PMS_P1;PMS_P2;Temp;Humidity;BMP_temperature;BMP_pressure;BME280_temperature;BME280_humidity;BME280_pressure;Samples;Min_cycle;Max_cycle;Signal;HPM_P1;HPM_P2
2023/05/30 00:02:17;;;;;;;3.70;0.73;;;;;;;12.34;64.71;102848.16;5093202;27;99269;-28
2023/05/30 00:04:42;;;;;;;4.93;0.70;;;;;;;12.27;64.99;102830.31;5093151;27;98960;-28
2023/05/30 00:07:08;;;;;;;4.70;0.75;;;;;;;12.26;65.54;102834.88;5093259;27;96614;-28
2023/05/30 00:09:33;;;;;;;3.20;0.70;;;;;;;12.19;65.54;102827.88;5093238;27;96964;-28
2023/05/30 00:12:00;;;;;;;2.20;0.73;;;;;;;12.17;65.20;102820.72;5093015;27;99226;-28
2023/05/30 00:14:26;;;;;;;2.47;0.75;;;;;;;12.17;65.12;102832.47;5074782;27;101052;-28
2023/05/30 00:16:52;;;;;;;4.43;0.90;;;;;;;12.13;65.61;102838.94;5074497;27;96760;-28
2023/05/30 00:19:19;;;;;;;2.67;0.70;;;;;;;12.09;65.38;102846.34;5074464;27;96729;-27
2023/05/30 00:21:45;;;;;;;2.58;0.65;;;;;;;12.08;65.45;102830.09;5092103;27;99701;-28
2023/05/30 00:24:11;;;;;;;4.85;0.88;;;;;;;12.08;65.27;102838.25;5074260;27;101139;-28
2023/05/30 00:26:36;;;;;;;1.80;0.73;;;;;;;12.09;64.59;102842.75;5092843;27;96716;-28
2023/05/30 00:29:02;;;;;;;0.93;0.30;;;;;;;12.05;65.31;102843.78;5093198;27;96778;-28
2023/05/30 00:31:29;;;;;;;3.05;0.98;;;;;;;11.95;66.12;102828.78;5092369;27;99445;-28
2023/05/30 00:33:54;;;;;;;2.92;0.77;;;;;;;12.02;65.65;102852.06;5092353;27;99384;-28
2023/05/30 00:36:20;;;;;;;4.55;0.98;;;;;;;12.02;65.80;102852.06;5091666;27;108196;-28
2023/05/30 00:38:45;;;;;;;0.95;0.43;;;;;;;11.96;66.63;102852.25;5093050;27;96850;-28
2023/05/30 00:41:10;;;;;;;7.57;0.98;;;;;;;12.00;65.80;102864.81;5092781;27;100459;-28
2023/05/30 00:43:37;;;;;;;2.38;0.55;;;;;;;12.02;66.43;102866.53;5092327;27;99707;-28
2023/05/30 00:46:04;;;;;;;6.72;1.00;;;;;;;12.00;65.20;102864.81;5092144;27;96723;-28
2023/05/30 00:48:29;;;;;;;1.88;0.90;;;;;;;11.90;65.35;102848.81;5077130;27;96903;-28
2023/05/30 00:50:55;;;;;;;5.90;0.80;;;;;;;11.95;66.08;102864.06;5095944;27;99923;-28
2023/05/30 00:53:21;;;;;;;3.22;0.80;;;;;;;11.92;65.97;102869.59;5077378;27;100658;-29
2023/05/30 00:55:48;;;;;;;3.13;0.80;;;;;;;11.87;66.26;102853.50;5077399;27;96596;-28
2023/05/30 00:58:14;;;;;;;3.63;0.90;;;;;;;11.83;65.47;102865.34;5077562;27;97143;-29
2023/05/30 01:00:40;;;;;;;1.65;0.70;;;;;;;11.83;65.67;102857.22;5077249;27;100964;-28
2023/05/30 01:03:08;;;;;;;1.80;0.82;;;;;;;11.80;66.23;102862.75;5096023;27;98647;-33
2023/05/30 01:05:33;;;;;;;4.60;0.70;;;;;;;11.79;66.27;102861.84;5095849;27;96612;-28
2023/05/30 01:07:59;;;;;;;3.88;0.90;;;;;;;11.81;66.37;102857.25;5096162;27;96763;-28
2023/05/30 01:10:24;;;;;;;8.75;0.50;;;;;;;11.83;66.30;102862.63;5095010;27;112525;-28
2023/05/30 01:13:25;;;;;;;0.90;0.43;;;;;;;11.86;66.52;102860.69;5095836;27;98126;-28
2023/05/30 01:16:04;;;;;;;1.70;0.65;;;;;;;11.87;66.92;102865.22;5076870;27;96689;-28
2023/05/30 01:18:39;;;;;;;4.07;0.70;;;;;;;11.87;66.50;102867.06;5077277;27;97890;-29
2023/05/30 01:21:10;;;;;;;1.77;0.60;;;;;;;11.81;66.34;102853.66;5077026;27;100952;-28
2023/05/30 01:24:27;;;;;;;4.68;0.43;;;;;;;11.89;66.18;102857.00;5095557;27;99778;-29
2023/05/30 01:27:15;;;;;;;1.40;0.60;;;;;;;11.90;67.26;102861.53;5048843;27;96727;-28
2023/05/30 01:29:42;;;;;;;3.00;0.75;;;;;;;11.89;66.67;102866.06;5096317;27;96462;-28
2023/05/30 01:32:08;;;;;;;2.83;0.82;;;;;;;11.82;65.30;102852.69;5076493;27;101408;-28
2023/05/30 01:34:34;;;;;;;1.15;0.60;;;;;;;11.84;66.30;102857.13;5095156;27;99242;-28
2023/05/30 01:37:00;;;;;;;2.20;0.82;;;;;;;11.76;65.41;102850.22;5076152;27;96580;-28
2023/05/30 01:39:25;;;;;;;3.83;0.68;;;;;;;11.77;66.54;102854.69;5095304;27;96822;-28
2023/05/30 01:42:08;;;;;;;1.85;0.47;;;;;;;11.78;65.80;102865.50;5095100;27;99007;-28
2023/05/30 01:44:43;;;;;;;2.72;0.93;;;;;;;11.79;66.29;102860.97;5076652;27;100745;-29
2023/05/30 01:47:20;;;;;;;4.18;0.85;;;;;;;11.75;66.63;102870.13;5076524;27;96733;-28
2023/05/30 01:49:55;;;;;;;0.60;0.40;;;;;;;11.62;66.02;102858.81;5076700;27;96763;-29
2023/05/30 01:52:23;;;;;;;3.17;0.70;;;;;;;11.57;66.91;102861.69;5076440;27;100937;-29
2023/05/30 01:54:54;;;;;;;1.90;0.93;;;;;;;11.62;66.24;102864.25;5076690;27;100989;-28
2023/05/30 01:57:20;;;;;;;2.28;0.70;;;;;;;11.56;66.97;102845.44;5076338;27;96556;-29
2023/05/30 01:59:47;;;;;;;3.22;0.68;;;;;;;11.62;66.86;102867.84;5076516;27;96833;-28
2023/05/30 02:02:12;;;;;;;2.20;0.82;;;;;;;11.60;66.33;102874.25;5075864;27;100798;-28
2023/05/30 02:04:38;;;;;;;1.30;0.52;;;;;;;11.58;66.76;102873.44;5076226;27;101231;-28
2023/05/30 02:07:04;;;;;;;1.63;0.50;;;;;;;11.54;67.37;102864.50;5095078;27;96506;-28
2023/05/30 02:09:29;;;;;;;4.07;1.05;;;;;;;11.56;67.02;102857.22;5094731;27;96874;-28
2023/05/30 02:11:55;;;;;;;1.50;0.50;;;;;;;11.56;66.89;102862.63;5094449;27;99562;-28
2023/05/30 02:14:22;;;;;;;1.90;0.77;;;;;;;11.59;66.49;102867.06;5094601;27;97804;-28
2023/05/30 02:16:48;;;;;;;3.30;1.02;;;;;;;11.59;66.62;102878.81;5075946;27;96949;-29
2023/05/30 02:19:14;;;;;;;1.92;0.90;;;;;;;11.54;66.81;102869.94;5076491;27;96933;-29
2023/05/30 02:21:40;;;;;;;1.48;0.73;;;;;;;11.55;66.99;102878.97;5094753;27;97357;-31
2023/05/30 02:24:05;;;;;;;4.53;1.45;;;;;;;11.58;66.69;102887.88;5094802;27;97750;-28
2023/05/30 02:26:31;;;;;;;0.80;0.30;;;;;;;11.52;66.82;102879.94;5094078;27;96645;-28
2023/05/30 02:28:56;;;;;;;4.25;0.40;;;;;;;11.54;67.48;102885.34;5094400;27;96835;-28
2023/05/30 02:31:22;;;;;;;1.00;0.50;;;;;;;11.52;67.24;102879.94;5094313;27;99207;-28
2023/05/30 02:33:47;;;;;;;1.67;0.63;;;;;;;11.45;67.31;102873.84;5094120;27;99197;-28
2023/05/30 02:36:12;;;;;;;1.73;0.75;;;;;;;11.47;67.39;102879.22;5094095;27;96903;-28
2023/05/30 02:38:38;;;;;;;3.97;0.82;;;;;;;11.41;67.28;102871.28;5094703;27;96780;-28
2023/05/30 02:41:03;;;;;;;2.85;0.80;;;;;;;11.37;67.22;102880.44;5094459;27;98186;-28
2023/05/30 02:43:29;;;;;;;4.18;0.65;;;;;;;11.34;67.69;102876.00;5094008;27;112011;-28
2023/05/30 02:45:54;;;;;;;1.50;0.70;;;;;;;11.38;68.02;102887.66;5094604;27;96581;-28
2023/05/30 02:48:20;;;;;;;2.13;1.10;;;;;;;11.35;67.64;102880.50;5094141;27;96850;-29
2023/05/30 02:50:46;;;;;;;0.85;0.45;;;;;;;11.30;67.64;102874.34;5093598;27;99343;-28
2023/05/30 02:53:11;;;;;;;2.05;0.47;;;;;;;11.32;68.80;102875.19;5094041;27;97761;-29
2023/05/30 02:55:36;;;;;;;0.68;0.45;;;;;;;11.36;67.65;102868.69;5094681;27;96393;-28
2023/05/30 02:58:02;;;;;;;1.63;1.00;;;;;;;11.34;68.00;102873.28;5094123;27;96796;-28
2023/05/30 03:00:27;;;;;;;2.65;0.68;;;;;;;11.43;68.44;102880.25;5094080;27;97316;-28
2023/05/30 03:02:54;;;;;;;1.75;0.88;;;;;;;11.41;68.29;102871.28;5093782;27;99276;-28
2023/05/30 03:05:19;;;;;;;1.55;0.70;;;;;;;11.41;67.54;102868.56;5075382;27;96786;-28
2023/05/30 03:07:45;;;;;;;2.53;0.80;;;;;;;11.39;67.46;102855.06;5094289;27;96902;-27
2023/05/30 03:10:10;;;;;;;3.90;1.20;;;;;;;11.43;67.69;102870.28;5092703;27;99718;-31
2023/05/30 03:12:35;;;;;;;0.43;0.32;;;;;;;11.43;67.69;102864.84;5093560;27;97313;-28
2023/05/30 03:15:04;;;;;;;3.63;1.02;;;;;;;11.46;67.77;102870.19;5074705;27;98158;-29
2023/05/30 03:17:30;;;;;;;2.63;0.77;;;;;;;11.50;67.11;102875.53;5093710;27;96832;-28
2023/05/30 03:19:55;;;;;;;3.38;0.77;;;;;;;11.46;67.49;102877.44;5074997;27;99854;-28
2023/05/30 03:22:21;;;;;;;3.72;0.70;;;;;;;11.46;67.43;102869.28;5093817;27;97753;-28
2023/05/30 03:24:46;;;;;;;2.35;0.57;;;;;;;11.45;67.72;102879.25;5093573;27;96438;-29
2023/05/30 03:27:11;;;;;;;1.52;0.82;;;;;;;11.46;67.84;102870.19;5093242;27;106975;-27
2023/05/30 03:29:36;;;;;;;1.27;0.60;;;;;;;11.41;67.02;102869.44;5093470;27;103073;-28
2023/05/30 03:32:02;;;;;;;3.15;1.20;;;;;;;11.42;68.21;102873.94;5093864;27;97490;-28
2023/05/30 03:34:30;;;;;;;3.28;1.20;;;;;;;11.42;67.87;102868.53;5075045;27;96529;-28
2023/05/30 03:36:56;;;;;;;1.55;0.70;;;;;;;11.41;67.58;102868.56;5093067;27;96952;-28
2023/05/30 03:39:22;;;;;;;4.43;0.85;;;;;;;11.48;67.59;102884.56;5092645;27;99426;-28
2023/05/30 03:41:47;;;;;;;1.73;0.63;;;;;;;11.42;67.52;102876.66;5093273;27;97364;-27
2023/05/30 03:44:13;;;;;;;0.93;0.52;;;;;;;11.44;67.58;102887.44;5093905;27;96494;-28
2023/05/30 03:46:38;;;;;;;3.53;0.70;;;;;;;11.50;67.75;102900.81;5093476;27;96830;-28
2023/05/30 03:49:03;;;;;;;2.25;0.65;;;;;;;11.48;67.85;102908.13;5093686;27;101505;-28
2023/05/30 03:51:29;;;;;;;3.70;0.85;;;;;;;11.49;67.80;102904.50;5093049;27;98957;-28
2023/05/30 03:53:54;;;;;;;1.70;1.00;;;;;;;11.46;67.86;102905.47;5074824;27;96630;-29
2023/05/30 03:56:20;;;;;;;4.40;1.20;;;;;;;11.40;67.82;102892.09;5093768;27;96746;-28
2023/05/30 03:58:45;;;;;;;1.05;0.70;;;;;;;11.47;68.12;102904.53;5074694;27;100832;-28
2023/05/30 04:01:11;;;;;;;0.65;0.45;;;;;;;11.45;68.64;102891.94;5093102;27;99600;-28
2023/05/30 04:03:37;;;;;;;1.70;0.65;;;;;;;11.45;67.73;102894.66;5074149;27;97655;-28
2023/05/30 04:06:05;;;;;;;1.88;1.00;;;;;;;11.50;68.29;102898.13;5093328;27;96765;-28
2023/05/30 04:08:30;;;;;;;2.17;1.02;;;;;;;11.47;68.23;102888.25;5074467;27;100855;-28
2023/05/30 04:10:56;;;;;;;3.00;0.70;;;;;;;11.56;67.56;102897.00;5093012;27;97217;-28
2023/05/30 04:13:21;;;;;;;1.70;0.68;;;;;;;11.54;68.45;102883.50;5093178;27;96521;-28
2023/05/30 04:15:46;;;;;;;1.15;0.70;;;;;;;11.63;67.15;102904.94;5092743;27;102804;-28
2023/05/30 04:18:12;;;;;;;1.77;0.95;;;;;;;11.58;68.60;102889.72;5093045;27;97986;-28
2023/05/30 04:20:37;;;;;;;5.88;0.82;;;;;;;11.58;67.07;102895.13;5093435;27;99111;-29
2023/05/30 04:23:02;;;;;;;3.53;0.98;;;;;;;11.60;67.85;102899.56;5096917;27;96643;-28
2023/05/30 04:25:28;;;;;;;4.78;1.10;;;;;;;11.64;68.27;102906.69;5096766;27;96813;-28
2023/05/30 04:27:54;;;;;;;3.28;0.77;;;;;;;11.69;67.93;102909.25;5095931;27;99977;-29
2023/05/30 04:30:20;;;;;;;2.38;0.80;;;;;;;11.64;67.58;102913.94;5096499;27;98787;-28
2023/05/30 04:32:45;;;;;;;2.75;0.57;;;;;;;11.62;68.26;102905.84;5096571;27;96618;-28
2023/05/30 04:35:13;;;;;;;6.15;1.35;;;;;;;11.64;67.50;102901.25;5095627;27;97118;-28
2023/05/30 04:37:43;;;;;;;1.25;0.77;;;;;;;11.64;67.61;102908.53;5077640;27;100986;-28
2023/05/30 04:40:12;;;;;;;1.75;0.90;;;;;;;11.66;67.29;102901.22;5061400;27;99062;-27
2023/05/30 04:42:41;;;;;;;1.73;0.93;;;;;;;11.64;68.10;102900.38;5096216;27;96624;-28
2023/05/30 04:45:07;;;;;;;3.08;1.17;;;;;;;11.61;66.81;102898.66;5096673;27;96683;-28
2023/05/30 04:47:33;;;;;;;1.63;1.13;;;;;;;11.61;67.93;102916.78;5077457;27;102122;-28
2023/05/30 04:50:01;;;;;;;1.88;0.95;;;;;;;11.64;68.15;102916.66;5077316;27;101360;-28
2023/05/30 04:52:27;;;;;;;1.52;0.90;;;;;;;11.59;67.77;102908.66;5076934;27;97103;-29
2023/05/30 04:54:53;;;;;;;3.13;1.08;;;;;;;11.64;67.50;102903.09;5096360;27;96744;-28
2023/05/30 04:57:19;;;;;;;4.20;0.82;;;;;;;11.69;66.92;102904.72;5077229;27;101506;-28
2023/05/30 04:59:44;;;;;;;1.65;0.95;;;;;;;11.68;67.35;102911.09;5077339;27;101580;-28
2023/05/30 05:02:10;;;;;;;2.17;0.80;;;;;;;11.63;67.15;102909.44;5096261;27;96581;-30
2023/05/30 05:04:36;;;;;;;3.38;0.98;;;;;;;11.63;67.13;102910.34;5095881;27;96777;-28
2023/05/30 05:07:01;;;;;;;2.47;1.00;;;;;;;11.60;67.66;102904.13;5095444;27;99688;-28
2023/05/30 05:09:26;;;;;;;7.15;0.93;;;;;;;11.59;67.49;102905.06;5096226;27;97805;-28
2023/05/30 05:11:53;;;;;;;1.10;0.68;;;;;;;11.64;67.09;102922.09;5096135;27;96452;-28
2023/05/30 05:14:18;;;;;;;1.48;0.63;;;;;;;11.64;66.83;102903.97;5077170;27;96835;-28
2023/05/30 05:16:44;;;;;;;2.95;1.30;;;;;;;11.66;66.92;102914.78;5076227;27;109763;-29
2023/05/30 05:19:09;;;;;;;4.18;1.13;;;;;;;11.62;66.91;102907.69;5095547;27;99444;-28
2023/05/30 05:21:35;;;;;;;2.13;1.08;;;;;;;11.65;66.89;102907.56;5095797;27;96702;-28
2023/05/30 05:24:00;;;;;;;1.27;0.80;;;;;;;11.64;66.81;102914.84;5095615;27;96793;-28
2023/05/30 05:26:26;;;;;;;2.38;1.02;;;;;;;11.59;67.29;102905.97;5095449;27;99385;-28
2023/05/30 05:28:51;;;;;;;1.88;0.82;;;;;;;11.59;66.82;102918.66;5095543;27;98051;-28
2023/05/30 05:31:18;;;;;;;1.58;0.90;;;;;;;11.60;67.63;102914.97;5095840;27;96776;-28
2023/05/30 05:33:43;;;;;;;2.58;1.13;;;;;;;11.62;66.84;102908.56;5094785;27;96829;-28
2023/05/30 05:36:08;;;;;;;2.38;1.00;;;;;;;11.56;66.92;102911.50;5094986;27;97996;-28
2023/05/30 05:38:34;;;;;;;3.95;1.30;;;;;;;11.54;66.90;102910.66;5095145;27;99298;-28
2023/05/30 05:40:59;;;;;;;2.03;0.88;;;;;;;11.59;66.88;102922.25;5094963;27;96499;-28
2023/05/30 05:43:25;;;;;;;3.22;1.20;;;;;;;11.59;67.51;102927.69;5095216;27;96818;-28
2023/05/30 05:45:51;;;;;;;1.85;1.00;;;;;;;11.58;67.35;102930.44;5095068;27;99508;-28
2023/05/30 05:48:17;;;;;;;3.30;1.20;;;;;;;11.60;67.61;102915.88;5076593;27;101169;-27
2023/05/30 05:50:42;;;;;;;2.25;1.23;;;;;;;11.62;67.24;102911.28;5095045;27;96685;-28
2023/05/30 05:53:07;;;;;;;1.15;0.77;;;;;;;11.64;67.74;102925.69;5076771;27;96986;-28
2023/05/30 05:55:32;;;;;;;2.15;1.15;;;;;;;11.71;66.50;102923.66;5094729;27;104471;-28
2023/05/30 05:57:58;;;;;;;2.13;0.95;;;;;;;11.70;67.15;102921.88;5095310;27;102367;-28
2023/05/30 06:00:24;;;;;;;3.42;1.08;;;;;;;11.69;66.63;102915.56;5095061;27;99630;-28
2023/05/30 06:02:49;;;;;;;5.90;1.25;;;;;;;11.72;66.93;102914.56;5076510;27;96959;-28
2023/05/30 06:05:14;;;;;;;2.65;1.20;;;;;;;11.80;67.07;102922.50;5094087;27;99599;-28
2023/05/30 06:07:40;;;;;;;0.95;0.82;;;;;;;11.88;66.37;102921.31;5094819;27;98805;-28
2023/05/30 06:10:06;;;;;;;3.75;1.17;;;;;;;11.89;67.11;102916.75;5095416;27;96601;-28
2023/05/30 06:12:31;;;;;;;3.35;1.20;;;;;;;11.88;66.72;102906.84;5095143;27;96771;-28
2023/05/30 06:14:56;;;;;;;1.88;1.02;;;;;;;11.98;66.10;102921.88;5094100;27;111033;-28
2023/05/30 06:17:22;;;;;;;3.20;1.35;;;;;;;12.07;66.63;102926.13;5094488;27;99055;-28
2023/05/30 06:19:50;;;;;;;1.02;0.80;;;;;;;12.13;66.15;102934.03;5095085;27;96557;-28
2023/05/30 06:22:15;;;;;;;5.03;1.13;;;;;;;12.15;65.53;102923.13;5076466;27;96849;-28
2023/05/30 06:24:40;;;;;;;5.30;1.45;;;;;;;12.22;66.18;102922.84;5094296;27;105466;-28
2023/05/30 06:27:06;;;;;;;2.63;1.08;;;;;;;12.22;66.03;102930.13;5094316;27;107913;-28
2023/05/30 06:29:33;;;;;;;6.05;1.17;;;;;;;12.22;65.88;102913.81;5092995;27;97138;-32
2023/05/30 06:31:58;;;;;;;1.48;1.00;;;;;;;12.35;65.82;102919.69;5075671;27;96913;-28
2023/05/30 06:34:24;;;;;;;2.83;1.23;;;;;;;12.42;65.45;102921.25;5075341;27;111952;-29
2023/05/30 06:36:49;;;;;;;2.50;1.25;;;;;;;12.49;65.70;102925.56;5094021;27;97795;-28
2023/05/30 06:39:15;;;;;;;1.88;0.70;;;;;;;12.51;65.40;102926.34;5094901;27;96479;-28
2023/05/30 06:41:44;;;;;;;5.30;1.00;;;;;;;12.55;65.37;102922.59;5094296;27;96788;-28
2023/05/30 06:44:09;;;;;;;10.18;1.13;;;;;;;12.60;64.88;102925.16;5073134;27;101551;-29
2023/05/30 06:46:35;;;;;;;1.65;0.80;;;;;;;12.65;65.27;102939.47;5091868;27;99739;-29
2023/05/30 06:49:01;;;;;;;2.17;1.00;;;;;;;12.66;64.82;102936.69;5073000;27;97106;-28
2023/05/30 06:51:26;;;;;;;1.60;0.68;;;;;;;12.68;65.19;102939.34;5091994;27;97149;-32
2023/05/30 06:53:52;;;;;;;5.60;1.08;;;;;;;12.66;65.12;102931.25;5090767;27;104151;-31
2023/05/30 06:56:17;;;;;;;3.58;0.80;;;;;;;12.73;65.06;102942.81;5091753;27;97811;-29
2023/05/30 06:58:43;;;;;;;5.90;1.20;;;;;;;12.67;64.88;102938.47;5093051;27;96618;-28
2023/05/30 07:01:08;;;;;;;1.88;0.80;;;;;;;12.64;64.90;102930.41;5094450;27;96786;-28
2023/05/30 07:03:33;;;;;;;2.08;0.88;;;;;;;12.77;64.93;102946.28;5093793;27;99108;-28
2023/05/30 07:06:00;;;;;;;4.85;1.02;;;;;;;12.75;64.99;102940.88;5093715;27;99556;-28
2023/05/30 07:08:25;;;;;;;3.83;1.13;;;;;;;12.73;64.82;102949.13;5075414;27;96670;-27
2023/05/30 07:10:51;;;;;;;2.28;1.20;;;;;;;12.70;64.82;102930.22;5075668;27;97310;-28
2023/05/30 07:13:16;;;;;;;1.23;0.70;;;;;;;12.76;64.68;102934.50;5094014;27;97972;-28
2023/05/30 07:15:42;;;;;;;2.42;0.82;;;;;;;12.86;64.52;102937.78;5093300;27;99355;-28
2023/05/30 07:18:07;;;;;;;3.90;1.15;;;;;;;12.85;64.86;102936.00;5093343;27;96669;-29
2023/05/30 07:20:33;;;;;;;1.52;1.10;;;;;;;12.90;64.30;102932.16;5093908;27;96869;-28
2023/05/30 07:22:58;;;;;;;2.03;0.98;;;;;;;13.02;63.95;102938.97;5093837;27;97852;-28
2023/05/30 07:25:23;;;;;;;2.13;1.08;;;;;;;13.02;64.18;102935.38;5093441;27;105340;-27
2023/05/30 07:27:48;;;;;;;3.60;1.02;;;;;;;13.05;64.01;102946.13;5094156;27;96614;-28
2023/05/30 07:30:14;;;;;;;2.05;1.05;;;;;;;13.05;64.09;102936.13;5093882;27;96770;-28
2023/05/30 07:32:39;;;;;;;3.70;1.33;;;;;;;13.06;64.03;102939.72;5093064;27;99320;-28
2023/05/30 07:35:05;;;;;;;1.85;0.88;;;;;;;13.08;63.75;102933.28;5093386;27;98125;-28
2023/05/30 07:37:30;;;;;;;2.47;0.98;;;;;;;13.08;63.68;102935.13;5093761;27;96521;-29
2023/05/30 07:39:56;;;;;;;4.53;1.30;;;;;;;13.12;63.47;102940.38;5093481;27;96763;-28
2023/05/30 07:42:22;;;;;;;2.80;0.98;;;;;;;13.15;63.44;102951.13;5093165;27;98059;-28
2023/05/30 07:44:47;;;;;;;5.55;1.15;;;;;;;13.15;63.52;102940.25;5074745;27;101099;-28
2023/05/30 07:47:12;;;;;;;3.67;1.00;;;;;;;13.14;63.78;102933.06;5093743;27;96637;-28
2023/05/30 07:49:38;;;;;;;2.90;0.88;;;;;;;13.25;63.24;102943.53;5093524;27;96840;-28
2023/05/30 07:52:03;;;;;;;1.58;1.00;;;;;;;13.27;63.08;102936.22;5092972;27;112273;-28
2023/05/30 07:54:29;;;;;;;2.22;1.08;;;;;;;13.36;62.84;102935.84;5093161;27;98209;-28
2023/05/30 07:56:55;;;;;;;2.67;1.13;;;;;;;13.73;62.52;102948.00;5098229;27;96796;-28
2023/05/30 07:59:20;;;;;;;2.05;1.27;;;;;;;14.16;61.19;102942.56;5100867;27;97120;-28
2023/05/30 08:01:46;;;;;;;3.03;1.40;;;;;;;14.54;60.31;102940.91;5100125;27;99423;-28
2023/05/30 08:04:12;;;;;;;2.67;1.08;;;;;;;14.91;60.21;102928.31;5081020;27;101095;-28
2023/05/30 08:06:37;;;;;;;1.55;0.93;;;;;;;15.12;59.07;102934.63;5100061;27;96566;-28
2023/05/30 08:09:02;;;;;;;2.78;1.20;;;;;;;15.28;58.44;102935.66;5081489;27;97054;-29
2023/05/30 08:11:28;;;;;;;1.33;0.73;;;;;;;15.40;58.16;102922.38;5100091;27;98060;-28
2023/05/30 08:13:53;;;;;;;2.42;1.23;;;;;;;15.62;57.91;102930.41;5099830;27;100312;-28
2023/05/30 08:16:20;;;;;;;1.70;1.00;;;;;;;15.79;57.62;102913.19;5099090;27;113762;-28
2023/05/30 08:18:45;;;;;;;2.85;1.25;;;;;;;15.96;57.23;102915.94;5081038;27;97893;-28
2023/05/30 08:21:11;;;;;;;11.60;1.65;;;;;;;16.02;56.74;102920.22;5099995;27;97922;-28
2023/05/30 08:23:37;;;;;;;2.05;1.20;;;;;;;16.07;56.72;102915.41;5100429;27;97209;-28
2023/05/30 08:26:03;;;;;;;5.88;1.45;;;;;;;16.21;56.41;102920.13;5100255;27;96714;-28
2023/05/30 08:28:28;;;;;;;4.28;1.30;;;;;;;16.31;56.44;102908.66;5081297;27;96829;-28
2023/05/30 08:30:54;;;;;;;3.72;1.25;;;;;;;16.41;56.22;102898.09;5099334;27;98646;-29
2023/05/30 08:33:20;;;;;;;2.47;1.15;;;;;;;16.64;55.47;102910.56;5099215;27;98021;-28
2023/05/30 08:35:46;;;;;;;6.00;1.67;;;;;;;16.81;55.55;102904.19;5080385;27;96646;-28
2023/05/30 08:38:12;;;;;;;3.33;1.10;;;;;;;16.91;55.45;102894.50;5099676;27;96812;-28
2023/05/30 08:40:45;;;;;;;4.18;1.67;;;;;;;16.98;54.55;102898.66;5099773;27;98078;-28
2023/05/30 08:43:11;;;;;;;7.18;1.30;;;;;;;17.04;54.64;102905.66;5080906;27;101589;-28
2023/05/30 08:45:39;;;;;;;3.00;1.00;;;;;;;17.06;53.87;102900.94;5099729;27;96543;-29
2023/05/30 08:48:08;;;;;;;4.03;1.38;;;;;;;17.31;53.19;102892.25;5082056;27;96666;-28
2023/05/30 08:50:36;;;;;;;3.95;1.40;;;;;;;17.51;53.67;102891.06;5080780;27;101147;-28
2023/05/30 08:53:09;;;;;;;6.53;1.55;;;;;;;17.51;52.79;102898.41;5080856;27;100749;-29
2023/05/30 08:55:41;;;;;;;5.43;1.20;;;;;;;17.57;53.35;102896.22;5080363;27;97567;-28
2023/05/30 08:58:26;;;;;;;5.25;1.42;;;;;;;17.71;52.21;102899.97;5080847;27;96783;-28
2023/05/30 09:00:52;;;;;;;2.75;1.50;;;;;;;17.63;51.92;102884.00;5099291;27;98957;-28
2023/05/30 09:03:18;;;;;;;5.50;1.52;;;;;;;17.61;51.49;102880.44;5080650;27;101691;-29
2023/05/30 09:05:46;;;;;;;4.55;1.75;;;;;;;17.67;52.11;102885.59;5080651;27;97483;-28
2023/05/30 09:08:13;;;;;;;2.88;1.33;;;;;;;17.76;52.29;102868.59;5077105;27;96520;-28
2023/05/30 09:10:42;;;;;;;6.93;1.13;;;;;;;18.01;52.10;102878.13;5077258;27;101471;-28
2023/05/30 09:13:09;;;;;;;5.50;1.73;;;;;;;17.87;52.28;102870.72;5077429;27;101090;-28
2023/05/30 09:15:34;;;;;;;3.53;1.25;;;;;;;18.09;51.81;102881.28;5076989;27;96784;-28
2023/05/30 09:18:00;;;;;;;4.57;1.13;;;;;;;18.16;50.92;102879.03;5095679;27;103326;-28
2023/05/30 09:20:28;;;;;;;3.65;1.13;;;;;;;18.15;51.53;102869.94;5076501;27;101207;-28
2023/05/30 09:22:54;;;;;;;2.85;1.27;;;;;;;18.21;52.14;102868.66;5077121;27;100781;-28
2023/05/30 09:25:19;;;;;;;5.60;1.75;;;;;;;18.31;51.07;102879.97;5095736;27;96629;-28
2023/05/30 09:27:48;;;;;;;2.95;1.00;;;;;;;18.37;50.68;102868.59;5077072;27;96986;-28
2023/05/30 09:30:14;;;;;;;8.95;1.95;;;;;;;18.34;50.84;102872.41;5095454;27;98736;-28
2023/05/30 09:32:39;;;;;;;3.15;1.35;;;;;;;18.53;51.20;102874.91;5095045;27;99519;-29
2023/05/30 09:35:06;;;;;;;6.15;1.30;;;;;;;18.65;50.72;102868.63;5095293;27;96908;-28
2023/05/30 09:37:41;;;;;;;2.75;1.40;;;;;;;18.75;49.71;102857.94;5077280;27;96895;-28
2023/05/30 09:40:10;;;;;;;6.90;1.33;;;;;;;19.01;49.34;102867.28;5076724;27;101147;-28
2023/05/30 09:42:43;;;;;;;5.25;1.50;;;;;;;18.93;48.82;102857.78;5076657;27;100904;-28
2023/05/30 09:45:29;;;;;;;5.43;1.33;;;;;;;19.03;49.29;102872.69;5076268;27;97142;-28
2023/05/30 09:47:54;;;;;;;3.38;1.20;;;;;;;19.15;49.31;102871.88;5094700;27;96866;-28
2023/05/30 09:50:22;;;;;;;5.00;1.48;;;;;;;19.13;48.89;102862.84;5094365;27;120727;-28
2023/05/30 09:52:56;;;;;;;7.28;1.45;;;;;;;19.17;49.52;102866.28;5076414;27;100757;-28
2023/05/30 09:55:24;;;;;;;6.53;1.33;;;;;;;19.17;49.15;102869.91;5076730;27;96706;-28
2023/05/30 09:57:51;;;;;;;3.58;1.33;;;;;;;19.22;48.76;102872.34;5095192;27;96824;-28
2023/05/30 10:00:22;;;;;;;2.38;1.35;;;;;;;19.38;48.87;102863.94;5076452;27;101012;-28
2023/05/30 10:02:55;;;;;;;2.55;1.25;;;;;;;19.51;48.80;102868.53;5076869;27;100989;-29
2023/05/30 10:05:22;;;;;;;6.28;1.50;;;;;;;19.38;47.87;102867.59;5095007;27;97209;-28
2023/05/30 10:07:49;;;;;;;2.70;1.80;;;;;;;19.36;47.97;102877.81;5076410;27;96812;-28
2023/05/30 10:10:15;;;;;;;4.68;1.60;;;;;;;19.40;47.78;102868.41;5075828;27;100921;-27
2023/05/30 10:13:01;;;;;;;2.28;1.20;;;;;;;19.54;47.81;102861.94;5076099;27;101486;-28
2023/05/30 10:15:27;;;;;;;6.05;1.58;;;;;;;19.65;47.86;102863.97;5093737;27;96755;-28
2023/05/30 10:17:58;;;;;;;3.03;1.20;;;;;;;19.72;47.57;102868.09;5095019;27;96812;-28
2023/05/30 10:20:26;;;;;;;3.70;1.33;;;;;;;19.92;48.04;102866.72;5075706;27;101112;-28
2023/05/30 10:22:52;;;;;;;2.30;1.40;;;;;;;19.99;47.47;102867.19;5076189;27;99121;-28
2023/05/30 10:25:18;;;;;;;4.35;1.27;;;;;;;19.90;47.16;102857.69;5076268;27;96606;-28
2023/05/30 10:27:48;;;;;;;3.65;1.65;;;;;;;19.98;47.49;102865.44;5076600;27;96816;-28
2023/05/30 10:30:18;;;;;;;2.42;1.40;;;;;;;19.93;47.43;102863.88;5094227;27;99631;-28
2023/05/30 10:32:50;;;;;;;3.45;1.10;;;;;;;20.04;47.30;102865.00;5094587;27;97768;-28
2023/05/30 10:35:20;;;;;;;2.10;1.20;;;;;;;20.01;47.72;102865.22;5074873;27;97115;-28
2023/05/30 10:37:47;;;;;;;3.60;1.23;;;;;;;19.99;47.79;102848.81;5076038;27;96787;-28
2023/05/30 10:40:29;;;;;;;4.20;1.50;;;;;;;20.02;46.73;102843.13;5094256;27;98112;-28
2023/05/30 10:43:07;;;;;;;3.17;1.30;;;;;;;20.08;46.90;102855.56;5075866;27;100749;-29
2023/05/30 10:45:51;;;;;;;5.18;1.40;;;;;;;20.10;47.21;102857.22;5094176;27;96612;-28
2023/05/30 10:48:48;;;;;;;7.65;1.17;;;;;;;20.02;46.08;102869.72;5094185;27;96868;-28
2023/05/30 10:51:16;;;;;;;5.32;1.38;;;;;;;20.00;47.38;102855.19;5094296;27;99509;-28
2023/05/30 10:53:43;;;;;;;2.78;1.23;;;;;;;20.19;47.01;102849.28;5075836;27;101570;-28
2023/05/30 10:56:34;;;;;;;3.13;1.33;;;;;;;20.15;46.29;102854.13;5094582;27;96385;-28
2023/05/30 10:59:00;;;;;;;1.75;1.17;;;;;;;20.21;46.99;102844.56;5075542;27;96814;-29
2023/05/30 11:01:30;;;;;;;4.43;1.42;;;;;;;20.32;47.65;102856.56;5074924;27;101039;-28
2023/05/30 11:03:56;;;;;;;4.97;1.63;;;;;;;20.14;47.48;102849.59;5075401;27;101027;-28
2023/05/30 11:06:22;;;;;;;2.67;1.15;;;;;;;20.21;47.37;102842.66;5094086;27;96516;-28
2023/05/30 11:08:51;;;;;;;1.35;1.10;;;;;;;20.25;47.67;102848.84;5093977;27;96877;-28
2023/05/30 11:11:17;;;;;;;3.83;1.15;;;;;;;20.23;47.97;102832.44;5075278;27;101239;-28
2023/05/30 11:13:50;;;;;;;3.72;1.60;;;;;;;20.39;47.44;102828.63;5093660;27;99429;-27
2023/05/30 11:16:23;;;;;;;3.03;1.30;;;;;;;20.16;46.88;102836.63;5075125;27;96755;-28
2023/05/30 11:18:51;;;;;;;2.05;1.17;;;;;;;20.35;47.68;102837.09;5075756;27;96892;-28
2023/05/30 11:22:03;;;;;;;4.70;1.20;;;;;;;20.47;46.87;102834.44;5075039;27;101423;-28
2023/05/30 11:24:30;;;;;;;3.13;1.50;;;;;;;20.24;47.84;102831.47;5070760;27;100862;-28
2023/05/30 11:27:07;;;;;;;3.58;1.27;;;;;;;20.22;48.08;102836.19;5093145;27;96529;-28